Terminal Aerodrome Forecast
Issued by NWS

Home | Current Version | Previous Version | Text Only | Print | Product List | Glossary On
Versions: 1 2 3 4 5 6 7 8 9 10 11 12 13
000
FTUS42 KGSP 021122
TAFGMU
TAF
KGMU 021122Z 0212/0312 03007KT P6SM FEW060
     FM021700 07007KT P6SM FEW060
     FM030800 04003KT P6SM FEW060=

USA.gov is the U.S. government's official web portal to all federal, state and local government web resources and services.